createdAt,value
2022-08-27T00:02:01.238Z,19.26
2022-08-27T00:04:29.866Z,19.28
2022-08-27T00:06:57.833Z,19.28
2022-08-27T00:09:27.142Z,19.43
2022-08-27T00:11:57.553Z,19.34
2022-08-27T00:14:26.544Z,19.38
2022-08-27T00:16:54.959Z,19.27
2022-08-27T00:19:23.259Z,19.33
2022-08-27T00:21:51.081Z,19.24
2022-08-27T00:24:18.900Z,19.40
2022-08-27T00:26:46.699Z,19.37
2022-08-27T00:29:15.820Z,19.31
2022-08-27T00:31:43.665Z,19.30
2022-08-27T00:34:15.307Z,19.24
2022-08-27T00:36:43.847Z,19.19
2022-08-27T00:39:11.717Z,19.23
2022-08-27T00:41:40.553Z,19.14
2022-08-27T00:44:09.415Z,19.10
2022-08-27T00:46:41.981Z,19.17
2022-08-27T00:49:14.146Z,19.23
2022-08-27T00:51:42.386Z,19.11
2022-08-27T00:54:10.666Z,19.13
2022-08-27T00:56:51.552Z,19.10
2022-08-27T00:59:23.594Z,19.24
2022-08-27T01:02:10.203Z,19.14
2022-08-27T01:04:40.584Z,19.06
2022-08-27T01:07:09.578Z,19.12
2022-08-27T01:09:39.235Z,19.06
2022-08-27T01:12:07.833Z,19.28
2022-08-27T01:14:36.168Z,19.28
2022-08-27T01:17:08.962Z,19.28
2022-08-27T01:19:42.400Z,19.31
2022-08-27T01:22:20.353Z,19.00
2022-08-27T01:24:55.954Z,19.39
2022-08-27T01:27:27.427Z,19.40
2022-08-27T01:29:55.724Z,19.42
2022-08-27T01:32:26.751Z,19.49
2022-08-27T01:34:56.336Z,19.24
2022-08-27T01:37:26.978Z,19.28
2022-08-27T01:39:59.468Z,19.15
2022-08-27T01:42:31.236Z,19.29
2022-08-27T01:45:03.708Z,19.24
2022-08-27T01:47:34.496Z,19.17
2022-08-27T01:50:03.245Z,19.05
2022-08-27T01:52:32.020Z,19.04
2022-08-27T01:55:01.336Z,18.98
2022-08-27T01:57:29.452Z,18.99
2022-08-27T01:59:58.019Z,18.76
2022-08-27T02:02:26.346Z,18.96
2022-08-27T02:04:54.300Z,18.91
2022-08-27T02:07:22.332Z,18.76
2022-08-27T02:09:50.181Z,18.83
2022-08-27T02:12:19.401Z,18.93
2022-08-27T02:14:47.204Z,18.88
2022-08-27T02:17:15.186Z,18.95
2022-08-27T02:19:43.300Z,18.93
2022-08-27T02:22:11.082Z,18.83
2022-08-27T02:24:39.271Z,18.69
2022-08-27T02:27:07.967Z,18.69
2022-08-27T02:29:37.302Z,18.74
2022-08-27T02:32:05.786Z,18.74
2022-08-27T02:34:34.465Z,18.75
2022-08-27T02:37:03.257Z,18.75
2022-08-27T02:39:31.648Z,18.67
2022-08-27T02:41:59.543Z,18.82
2022-08-27T02:44:27.342Z,18.88
2022-08-27T02:46:58.155Z,19.06
2022-08-27T02:49:26.307Z,19.03
2022-08-27T02:51:54.662Z,18.98
2022-08-27T02:54:22.757Z,18.98
2022-08-27T02:56:50.908Z,19.07
2022-08-27T02:59:19.284Z,19.07
2022-08-27T03:01:47.902Z,19.23
2022-08-27T03:04:18.652Z,19.08
2022-08-27T03:06:47.099Z,19.18
2022-08-27T03:09:15.453Z,19.19
2022-08-27T03:11:43.507Z,19.20
2022-08-27T03:14:11.321Z,19.27
2022-08-27T03:16:39.507Z,19.22
2022-08-27T03:19:07.210Z,18.84
2022-08-27T03:21:37.346Z,18.85
2022-08-27T03:24:11.422Z,18.79
2022-08-27T03:26:40.002Z,18.73
2022-08-27T03:29:08.611Z,18.78
2022-08-27T03:31:36.490Z,18.86
2022-08-27T03:34:09.485Z,18.98
2022-08-27T03:36:39.342Z,19.20
2022-08-27T03:39:07.111Z,19.20
2022-08-27T03:41:45.424Z,19.06
2022-08-27T03:44:22.900Z,19.13
2022-08-27T03:46:50.819Z,19.11
2022-08-27T03:49:20.277Z,18.97
2022-08-27T03:51:51.404Z,18.98
2022-08-27T03:54:19.480Z,18.82
2022-08-27T03:56:47.261Z,18.55
2022-08-27T03:59:16.052Z,18.47
2022-08-27T04:01:44.280Z,18.61
2022-08-27T04:04:12.996Z,18.73
2022-08-27T04:06:41.263Z,18.59
2022-08-27T04:09:10.421Z,18.63
2022-08-27T04:11:38.350Z,18.67
2022-08-27T04:14:20.838Z,18.81
2022-08-27T04:16:55.865Z,19.03
2022-08-27T04:19:27.290Z,19.11
2022-08-27T04:22:00.206Z,19.13
2022-08-27T04:24:30.142Z,19.26
2022-08-27T04:26:58.385Z,19.29
2022-08-27T04:29:26.161Z,19.29
2022-08-27T04:31:56.385Z,19.19
2022-08-27T04:34:25.353Z,19.17
2022-08-27T04:36:56.124Z,19.33
2022-08-27T04:39:24.348Z,19.44
2022-08-27T04:41:56.009Z,19.39
2022-08-27T04:44:24.158Z,19.33
2022-08-27T04:46:56.467Z,19.51
2022-08-27T04:49:24.810Z,19.63
2022-08-27T04:51:53.028Z,19.85
2022-08-27T04:54:22.532Z,19.89
2022-08-27T04:57:03.393Z,19.96
2022-08-27T04:59:31.396Z,19.99
2022-08-27T05:01:59.524Z,20.08
2022-08-27T05:04:27.358Z,20.04
2022-08-27T05:06:55.636Z,20.07
2022-08-27T05:09:24.592Z,19.93
2022-08-27T05:11:55.560Z,20.15
2022-08-27T05:14:29.885Z,20.18
2022-08-27T05:16:58.797Z,20.18
2022-08-27T05:19:27.107Z,20.05
2022-08-27T05:21:55.081Z,20.32
2022-08-27T05:24:23.381Z,19.99
2022-08-27T05:26:52.285Z,19.94
2022-08-27T05:29:20.354Z,19.94
2022-08-27T05:31:49.523Z,20.23
2022-08-27T05:34:43.979Z,20.15
2022-08-27T05:37:11.919Z,20.15
2022-08-27T05:39:39.764Z,20.64
2022-08-27T05:42:07.951Z,20.96
2022-08-27T05:44:42.714Z,20.88
2022-08-27T05:47:12.167Z,20.84
2022-08-27T05:49:39.983Z,21.24
2022-08-27T05:52:10.546Z,21.24
2022-08-27T05:54:38.965Z,21.32
2022-08-27T05:57:07.107Z,21.76
2022-08-27T05:59:52.616Z,22.12
2022-08-27T06:02:21.983Z,22.16
2022-08-27T06:04:49.872Z,22.28
2022-08-27T06:07:17.759Z,22.42
2022-08-27T06:09:45.540Z,22.51
2022-08-27T06:12:13.463Z,22.45
2022-08-27T06:14:41.400Z,22.66
2022-08-27T06:17:09.213Z,22.96
2022-08-27T06:19:38.359Z,22.58
2022-08-27T06:22:10.125Z,22.92
2022-08-27T06:24:40.028Z,23.25
2022-08-27T06:27:08.063Z,24.09
2022-08-27T06:29:35.894Z,24.62
2022-08-27T06:32:05.852Z,24.68
2022-08-27T06:34:34.448Z,24.92
2022-08-27T06:37:03.879Z,24.21
2022-08-27T06:39:32.833Z,24.16
2022-08-27T06:42:00.662Z,24.44
2022-08-27T06:44:33.868Z,24.43
2022-08-27T06:47:03.695Z,24.15
2022-08-27T06:49:33.720Z,24.28
2022-08-27T06:52:03.153Z,24.92
2022-08-27T06:54:32.263Z,24.69
2022-08-27T06:57:01.183Z,25.13
2022-08-27T06:59:29.082Z,25.56
2022-08-27T07:01:57.024Z,24.99
2022-08-27T07:04:30.749Z,26.16
2022-08-27T07:07:03.117Z,25.49
2022-08-27T07:09:32.619Z,24.99
2022-08-27T07:12:01.112Z,25.65
2022-08-27T07:14:34.063Z,26.29
2022-08-27T07:17:05.140Z,25.58
2022-08-27T07:19:34.226Z,25.75
2022-08-27T07:22:10.460Z,27.18
2022-08-27T07:24:38.638Z,32.13
2022-08-27T07:27:07.074Z,31.37
2022-08-27T07:29:35.128Z,29.14
2022-08-27T07:32:05.086Z,27.21
2022-08-27T07:34:33.376Z,25.94
2022-08-27T07:37:02.240Z,25.62
2022-08-27T07:39:31.633Z,25.83
2022-08-27T07:42:17.126Z,25.52
2022-08-27T07:44:45.231Z,25.93
2022-08-27T07:47:13.613Z,25.30
2022-08-27T07:49:41.707Z,25.95
2022-08-27T07:52:09.916Z,26.99
2022-08-27T07:54:39.140Z,26.46
2022-08-27T07:57:07.088Z,27.17
2022-08-27T07:59:36.225Z,27.15
2022-08-27T08:02:04.669Z,28.05
2022-08-27T08:04:32.821Z,28.47
2022-08-27T08:07:00.577Z,28.03
2022-08-27T08:09:28.872Z,27.61
2022-08-27T08:11:58.094Z,27.40
2022-08-27T08:14:26.083Z,27.18
2022-08-27T08:16:53.924Z,27.15
2022-08-27T08:19:22.186Z,26.86
2022-08-27T08:21:52.975Z,26.11
2022-08-27T08:24:27.480Z,25.89
2022-08-27T08:26:55.287Z,25.86
2022-08-27T08:29:24.527Z,25.53
2022-08-27T08:31:52.361Z,25.39
2022-08-27T08:34:21.196Z,25.15
2022-08-27T08:36:54.657Z,25.47
2022-08-27T08:39:24.490Z,25.74
2022-08-27T08:41:55.009Z,25.95
2022-08-27T08:44:32.463Z,26.15
2022-08-27T08:47:05.458Z,26.29
2022-08-27T08:49:49.648Z,26.27
2022-08-27T08:52:31.622Z,26.45
2022-08-27T08:55:08.424Z,26.22
2022-08-27T08:57:42.052Z,26.20
2022-08-27T09:00:14.513Z,26.37
2022-08-27T09:02:50.529Z,26.12
2022-08-27T09:05:18.785Z,25.96
2022-08-27T09:08:09.707Z,26.14
2022-08-27T09:10:46.561Z,25.85
2022-08-27T09:13:22.834Z,26.22
2022-08-27T09:15:55.261Z,26.50
2022-08-27T09:18:23.461Z,26.48
2022-08-27T09:21:08.811Z,25.95
2022-08-27T09:23:45.560Z,27.12
2022-08-27T09:26:22.291Z,26.90
2022-08-27T09:29:07.774Z,27.57
2022-08-27T09:31:40.925Z,30.79
2022-08-27T09:34:09.704Z,33.93
2022-08-27T09:36:50.611Z,33.55
2022-08-27T09:39:18.601Z,33.33
2022-08-27T09:41:51.055Z,33.10
2022-08-27T09:44:22.812Z,32.66
2022-08-27T09:46:59.353Z,31.74
2022-08-27T09:49:27.557Z,28.88
2022-08-27T09:51:57.002Z,29.05
2022-08-27T09:54:30.737Z,29.17
2022-08-27T09:56:59.121Z,28.17
2022-08-27T09:59:31.535Z,27.99
2022-08-27T10:02:11.659Z,27.62
2022-08-27T10:04:51.199Z,26.00
2022-08-27T10:07:27.167Z,25.58
2022-08-27T10:10:01.981Z,25.29
2022-08-27T10:12:37.642Z,24.84
2022-08-27T10:15:08.134Z,24.88
2022-08-27T10:17:52.310Z,24.56
2022-08-27T10:20:30.374Z,24.49
2022-08-27T10:23:11.241Z,24.65
2022-08-27T10:25:49.134Z,25.31
2022-08-27T10:28:28.898Z,25.75
2022-08-27T10:31:17.195Z,28.02
2022-08-27T10:33:59.618Z,27.20
2022-08-27T10:36:44.611Z,26.80
2022-08-27T10:39:23.674Z,27.71
2022-08-27T10:42:15.188Z,26.97
2022-08-27T10:44:52.344Z,27.68
2022-08-27T10:47:32.499Z,27.99
2022-08-27T10:50:06.467Z,29.06
2022-08-27T10:52:40.621Z,29.64
2022-08-27T10:55:15.066Z,29.19
2022-08-27T10:58:05.899Z,30.02
2022-08-27T11:00:42.687Z,31.41
2022-08-27T11:03:13.876Z,29.82
2022-08-27T11:05:46.034Z,27.61
2022-08-27T11:08:18.504Z,27.35
2022-08-27T11:10:50.204Z,29.25
2022-08-27T11:13:31.846Z,30.03
2022-08-27T11:16:02.940Z,31.36
2022-08-27T11:18:41.168Z,30.38
2022-08-27T11:21:17.869Z,30.64
2022-08-27T11:23:49.486Z,31.13
2022-08-27T11:26:17.492Z,29.81
2022-08-27T11:28:49.555Z,28.80
2022-08-27T11:31:23.938Z,29.48
2022-08-27T11:34:04.720Z,30.16
2022-08-27T11:37:02.297Z,30.32
2022-08-27T11:39:49.786Z,28.94
2022-08-27T11:42:25.801Z,27.39
2022-08-27T11:44:58.920Z,25.91
2022-08-27T11:47:28.889Z,25.86
2022-08-27T11:49:59.550Z,26.13
2022-08-27T11:52:31.859Z,27.85
2022-08-27T11:55:13.069Z,27.60
2022-08-27T11:57:41.326Z,27.13
2022-08-27T12:00:18.559Z,26.06
2022-08-27T12:02:57.162Z,25.72
2022-08-27T12:05:36.937Z,26.45
2022-08-27T12:08:18.621Z,26.56
2022-08-27T12:11:17.030Z,26.57
2022-08-27T12:13:55.304Z,26.18
2022-08-27T12:16:32.214Z,27.05
2022-08-27T12:19:14.122Z,27.44
2022-08-27T12:21:49.878Z,27.88
2022-08-27T12:24:55.623Z,27.65
2022-08-27T12:27:34.609Z,28.03
2022-08-27T12:30:23.619Z,27.26
2022-08-27T12:32:54.501Z,27.65
2022-08-27T12:35:30.466Z,27.22
2022-08-27T12:38:12.847Z,26.30
2022-08-27T12:40:48.830Z,25.95
2022-08-27T12:43:21.234Z,25.26
2022-08-27T12:45:52.752Z,25.64
2022-08-27T12:48:23.512Z,25.68
2022-08-27T12:50:54.102Z,26.04
2022-08-27T12:53:35.606Z,26.47
2022-08-27T12:56:24.078Z,26.36
2022-08-27T12:59:00.118Z,26.78
2022-08-27T13:01:43.114Z,26.13
2022-08-27T13:04:22.352Z,25.80
2022-08-27T13:06:51.235Z,25.54
2022-08-27T13:09:28.078Z,25.12
2022-08-27T13:11:59.504Z,25.10
2022-08-27T13:14:29.247Z,25.67
2022-08-27T13:16:59.502Z,26.08
2022-08-27T13:19:30.693Z,26.37
2022-08-27T13:22:01.433Z,26.46
2022-08-27T13:24:32.495Z,26.65
2022-08-27T13:27:04.171Z,27.63
2022-08-27T13:29:32.445Z,29.00
2022-08-27T13:32:02.279Z,28.54
2022-08-27T13:34:36.453Z,27.90
2022-08-27T13:37:06.657Z,27.32
2022-08-27T13:39:35.898Z,27.09
2022-08-27T13:42:08.453Z,27.15
2022-08-27T13:44:40.111Z,26.76
2022-08-27T13:47:11.471Z,26.57
2022-08-27T13:49:40.194Z,27.50
2022-08-27T13:52:22.024Z,27.89
2022-08-27T13:54:54.255Z,27.54
2022-08-27T13:57:28.313Z,27.19
2022-08-27T13:59:56.241Z,27.15
2022-08-27T14:02:28.678Z,26.74
2022-08-27T14:05:11.291Z,26.56
2022-08-27T14:07:44.462Z,26.40
2022-08-27T14:10:30.693Z,25.80
2022-08-27T14:13:02.898Z,25.45
2022-08-27T14:15:33.930Z,25.30
2022-08-27T14:18:02.801Z,25.51
2022-08-27T14:20:30.845Z,25.63
2022-08-27T14:22:59.625Z,25.59
2022-08-27T14:25:27.607Z,25.20
2022-08-27T14:27:57.193Z,23.95
2022-08-27T14:30:28.951Z,23.05
2022-08-27T14:33:00.411Z,23.11
2022-08-27T14:35:31.972Z,23.36
2022-08-27T14:38:02.261Z,23.82
2022-08-27T14:40:30.465Z,24.09
2022-08-27T14:43:01.037Z,24.61
2022-08-27T14:45:30.486Z,24.54
2022-08-27T14:48:02.124Z,24.67
2022-08-27T14:50:30.576Z,24.69
2022-08-27T14:52:58.486Z,25.15
2022-08-27T14:55:26.418Z,25.13
2022-08-27T14:57:54.184Z,25.24
2022-08-27T15:00:22.158Z,25.28
2022-08-27T15:02:51.838Z,25.46
2022-08-27T15:05:22.477Z,25.85
2022-08-27T15:07:56.212Z,25.96
2022-08-27T15:10:26.710Z,25.81
2022-08-27T15:12:55.088Z,26.20
2022-08-27T15:15:23.508Z,26.47
2022-08-27T15:17:52.766Z,26.04
2022-08-27T15:20:20.663Z,25.70
2022-08-27T15:22:50.799Z,26.08
2022-08-27T15:25:18.969Z,25.87
2022-08-27T15:27:46.783Z,25.87
2022-08-27T15:30:17.428Z,25.70
2022-08-27T15:32:48.402Z,25.69
2022-08-27T15:35:20.002Z,25.49
2022-08-27T15:37:47.944Z,25.53
2022-08-27T15:40:17.952Z,25.94
2022-08-27T15:42:46.670Z,26.11
2022-08-27T15:45:15.448Z,26.21
2022-08-27T15:47:43.255Z,26.24
2022-08-27T15:50:11.616Z,26.44
2022-08-27T15:52:42.317Z,26.13
2022-08-27T15:55:20.010Z,25.68
2022-08-27T15:57:48.161Z,26.68
2022-08-27T16:00:17.689Z,27.41
2022-08-27T16:02:47.186Z,28.04
2022-08-27T16:05:16.855Z,26.72
2022-08-27T16:07:46.697Z,26.14
2022-08-27T16:10:15.396Z,25.78
2022-08-27T16:12:43.280Z,25.11
2022-08-27T16:15:11.754Z,24.86
2022-08-27T16:17:39.825Z,25.12
2022-08-27T16:20:09.927Z,24.69
2022-08-27T16:22:38.277Z,24.47
2022-08-27T16:25:09.189Z,24.49
2022-08-27T16:27:37.450Z,24.44
2022-08-27T16:30:08.182Z,24.31
2022-08-27T16:32:36.840Z,24.08
2022-08-27T16:35:06.787Z,23.51
2022-08-27T16:37:34.690Z,23.78
2022-08-27T16:40:02.564Z,24.29
2022-08-27T16:42:33.278Z,24.43
2022-08-27T16:45:03.415Z,23.93
2022-08-27T16:47:31.212Z,23.68
2022-08-27T16:50:24.197Z,23.23
2022-08-27T16:52:53.845Z,23.47
2022-08-27T16:55:21.653Z,23.16
2022-08-27T16:57:50.836Z,23.10
2022-08-27T17:00:19.182Z,22.87
2022-08-27T17:02:47.254Z,23.02
2022-08-27T17:05:33.386Z,22.90
2022-08-27T17:08:02.519Z,22.59
2022-08-27T17:10:34.584Z,22.33
2022-08-27T17:13:03.806Z,22.37
2022-08-27T17:15:31.709Z,22.18
2022-08-27T17:17:59.597Z,22.18
2022-08-27T17:20:30.007Z,22.00
2022-08-27T17:22:59.229Z,21.90
2022-08-27T17:25:30.240Z,21.69
2022-08-27T17:28:00.446Z,21.84
2022-08-27T17:30:30.183Z,21.82
2022-08-27T17:32:58.202Z,21.75
2022-08-27T17:35:27.287Z,21.62
2022-08-27T17:37:55.609Z,21.86
2022-08-27T17:40:24.169Z,21.81
2022-08-27T17:42:52.158Z,21.59
2022-08-27T17:45:20.349Z,21.73
2022-08-27T17:47:49.573Z,21.79
2022-08-27T17:50:17.593Z,21.50
2022-08-27T17:52:45.641Z,21.49
2022-08-27T17:55:13.492Z,21.33
2022-08-27T17:57:41.555Z,21.53
2022-08-27T18:00:12.866Z,21.68
2022-08-27T18:02:44.005Z,21.54
2022-08-27T18:05:14.100Z,21.73
2022-08-27T18:07:42.491Z,21.87
2022-08-27T18:10:12.528Z,21.90
2022-08-27T18:12:41.357Z,22.07
2022-08-27T18:15:14.514Z,22.17
2022-08-27T18:17:43.405Z,22.14
2022-08-27T18:20:15.020Z,22.17
2022-08-27T18:22:48.782Z,22.10
2022-08-27T18:25:18.780Z,21.66
2022-08-27T18:27:49.887Z,21.61
2022-08-27T18:30:18.378Z,21.43
2022-08-27T18:32:47.210Z,21.33
2022-08-27T18:35:20.161Z,21.35
2022-08-27T18:37:48.292Z,21.77
2022-08-27T18:40:17.733Z,21.77
2022-08-27T18:42:45.933Z,22.00
2022-08-27T18:45:17.042Z,21.90
2022-08-27T18:47:45.628Z,22.08
2022-08-27T18:50:17.657Z,22.20
2022-08-27T18:52:49.182Z,22.15
2022-08-27T18:55:20.934Z,21.92
2022-08-27T18:57:49.413Z,21.98
2022-08-27T19:00:19.826Z,22.00
2022-08-27T19:02:52.414Z,22.00
2022-08-27T19:05:24.917Z,21.87
2022-08-27T19:46:35.404Z,21.72
2022-08-27T19:49:03.565Z,21.77
2022-08-27T19:51:31.662Z,21.63
2022-08-27T19:53:59.594Z,21.64
2022-08-27T19:56:28.819Z,21.55
2022-08-27T19:59:00.626Z,21.62
2022-08-27T20:01:35.346Z,21.64
2022-08-27T20:04:06.052Z,21.50
2022-08-27T20:06:35.099Z,21.49
2022-08-27T20:09:06.411Z,21.49
2022-08-27T20:11:34.551Z,21.55
2022-08-27T20:14:02.441Z,21.58
2022-08-27T20:16:30.350Z,21.73
2022-08-27T20:19:01.423Z,21.77
2022-08-27T20:21:29.721Z,21.64
2022-08-27T20:23:57.603Z,21.66
2022-08-27T20:26:26.109Z,21.64
2022-08-27T20:28:54.523Z,21.44
2022-08-27T20:31:22.420Z,21.43
2022-08-27T20:33:51.276Z,21.31
2022-08-27T20:36:24.000Z,21.30
2022-08-27T20:38:57.229Z,21.37
2022-08-27T20:41:25.453Z,21.34
2022-08-27T20:43:54.021Z,21.36
2022-08-27T20:46:25.634Z,21.33
2022-08-27T20:48:54.332Z,21.03
2022-08-27T20:51:24.173Z,21.16
2022-08-27T20:53:52.632Z,21.01
2022-08-27T20:56:21.058Z,20.96
2022-08-27T20:59:06.678Z,21.21
2022-08-27T21:01:35.854Z,21.20
2022-08-27T21:04:04.174Z,20.93
2022-08-27T21:06:33.669Z,21.04
2022-08-27T21:09:01.478Z,21.05
2022-08-27T21:11:29.383Z,21.22
2022-08-27T21:13:57.172Z,21.12
2022-08-27T21:16:25.868Z,21.17
2022-08-27T21:18:55.540Z,21.31
2022-08-27T21:21:24.170Z,21.03
2022-08-27T21:23:53.326Z,21.18
2022-08-27T21:26:22.955Z,21.50
2022-08-27T21:28:55.640Z,21.55
2022-08-27T21:31:24.350Z,21.59
2022-08-27T21:33:52.557Z,21.34
2022-08-27T21:36:20.432Z,21.67
2022-08-27T21:38:48.250Z,21.55
2022-08-27T21:41:17.373Z,21.60
2022-08-27T21:43:45.144Z,21.22
2022-08-27T21:46:13.086Z,21.34
2022-08-27T21:48:40.895Z,21.38
2022-08-27T21:51:09.887Z,21.25
2022-08-27T21:53:38.220Z,21.08
2022-08-27T21:56:06.287Z,21.03
2022-08-27T21:58:36.150Z,20.90
2022-08-27T22:01:06.210Z,20.97
2022-08-27T22:03:35.883Z,20.98
2022-08-27T22:06:06.707Z,20.93
2022-08-27T22:08:35.548Z,20.91
2022-08-27T22:11:03.466Z,20.58
2022-08-27T22:13:31.343Z,20.79
2022-08-27T22:16:00.473Z,20.84
2022-08-27T22:18:28.392Z,20.74
2022-08-27T22:20:59.424Z,21.03
2022-08-27T22:23:27.611Z,21.15
2022-08-27T22:25:55.490Z,21.05
2022-08-27T22:28:23.276Z,21.09
2022-08-27T22:30:51.043Z,21.09
2022-08-27T22:33:20.390Z,21.05
2022-08-27T22:35:48.754Z,20.71
2022-08-27T22:38:16.557Z,20.95
2022-08-27T22:40:44.634Z,20.85
2022-08-27T22:43:12.356Z,20.97
2022-08-27T22:45:40.154Z,20.91
2022-08-27T22:48:07.902Z,20.93
2022-08-27T22:50:37.148Z,20.85
2022-08-27T22:53:04.971Z,21.00
2022-08-27T22:55:33.227Z,21.20
2022-08-27T22:58:02.058Z,20.95
2022-08-27T23:00:33.815Z,21.08
2022-08-27T23:03:05.486Z,21.26
2022-08-27T23:05:41.338Z,21.28
2022-08-27T23:08:13.171Z,21.28
2022-08-27T23:10:42.597Z,21.38
2022-08-27T23:13:11.981Z,21.26
2022-08-27T23:15:40.421Z,21.19
2022-08-27T23:18:08.905Z,21.06
2022-08-27T23:20:36.720Z,21.03
2022-08-27T23:23:04.523Z,21.06
2022-08-27T23:25:52.455Z,20.98
2022-08-27T23:28:20.578Z,20.83
2022-08-27T23:30:48.680Z,20.92
2022-08-27T23:33:16.827Z,20.85
2022-08-27T23:35:48.184Z,20.51
2022-08-27T23:38:16.771Z,20.78
2022-08-27T23:40:46.639Z,20.59
2022-08-27T23:43:14.979Z,20.80
2022-08-27T23:45:43.227Z,20.91
2022-08-27T23:48:11.432Z,20.55
2022-08-27T23:50:40.809Z,20.55
2022-08-27T23:53:09.360Z,20.61
2022-08-27T23:55:38.519Z,20.33
2022-08-27T23:58:08.606Z,20.24
